KERV/ERV METAR and TAF weather

Enter ICAO airport designator
Station Type Date Time Source
KERV METAR 2022/01/27 22:35 UTC NOAA

KERV 272235Z AUTO 17005KT 10SM OVC037 15/06 A3018 RMK AO2 T01450060


Station Type Date Time Source
KERV Decoded METAR 2022/01/27 22:35 UTC NOAA

Kerrville, Kerrville Municipal Airport/Louis Schreiner Field, TX, United States (KERV) 29-58N 099-05W
Jan 27, 2022 - 05:35 PM EST / 2022.01.27 2235 UTC
Wind: from the S (170 degrees) at 6 MPH (5 KT):0
Visibility: 10 mile(s):0
Sky conditions: overcast
Temperature: 58.1 F (14.5 C)
Dew Point: 42.8 F (6.0 C)
Relative Humidity: 56%
Pressure (altimeter): 30.18 in. Hg (1022 hPa)
ob: KERV 272235Z AUTO 17005KT 10SM OVC037 15/06 A3018 RMK AO2 T01450060
cycle: 22

Station Type Date Time Source
KERV TAF UTC NOAA

Error!

Example: see airport list